createdAt,value
2022-09-15T00:01:42.620Z,60.32
2022-09-15T00:04:10.967Z,60.02
2022-09-15T00:06:39.545Z,60.11
2022-09-15T00:09:08.092Z,60.23
2022-09-15T00:11:38.130Z,60.20
2022-09-15T00:14:08.859Z,60.30
2022-09-15T00:16:38.772Z,59.80
2022-09-15T00:19:07.454Z,59.47
2022-09-15T00:21:39.421Z,59.56
2022-09-15T00:24:09.661Z,59.63
2022-09-15T00:26:38.854Z,59.75
2022-09-15T00:29:07.129Z,59.62
2022-09-15T00:31:35.514Z,59.66
2022-09-15T00:34:05.042Z,59.63
2022-09-15T00:36:34.131Z,59.78
2022-09-15T00:39:02.317Z,60.02
2022-09-15T00:41:31.309Z,60.22
2022-09-15T00:44:07.524Z,60.49
2022-09-15T00:46:41.559Z,61.00
2022-09-15T00:49:26.911Z,61.21
2022-09-15T00:52:04.815Z,61.73
2022-09-15T00:55:08.671Z,61.98
2022-09-15T00:57:44.678Z,62.24
2022-09-15T01:00:18.608Z,62.46
2022-09-15T01:02:48.572Z,62.47
2022-09-15T01:05:20.561Z,62.65
2022-09-15T01:08:05.849Z,62.57
2022-09-15T01:10:39.316Z,62.41
2022-09-15T01:13:12.717Z,62.28
2022-09-15T01:16:13.223Z,62.49
2022-09-15T01:18:56.819Z,62.77
2022-09-15T01:21:56.879Z,62.11
2022-09-15T01:24:42.315Z,62.08
2022-09-15T01:27:52.024Z,62.37
2022-09-15T01:30:24.949Z,61.28
2022-09-15T01:33:31.402Z,60.75
2022-09-15T01:36:12.801Z,61.97
2022-09-15T01:39:24.173Z,62.60
2022-09-15T01:42:01.248Z,62.65
2022-09-15T01:44:39.277Z,62.64
2022-09-15T01:47:12.758Z,62.54
2022-09-15T01:50:15.492Z,62.58
2022-09-15T01:52:49.459Z,62.92
2022-09-15T01:55:31.779Z,63.10
2022-09-15T01:58:00.228Z,62.96
2022-09-15T02:00:40.386Z,62.70
2022-09-15T02:03:38.070Z,62.69
2022-09-15T02:06:15.941Z,62.58
2022-09-15T02:09:02.792Z,62.77
2022-09-15T02:11:33.085Z,62.59
2022-09-15T02:14:21.232Z,62.96
2022-09-15T02:16:54.372Z,62.88
2022-09-15T02:19:33.758Z,62.36
2022-09-15T02:22:17.849Z,62.27
2022-09-15T02:24:55.194Z,62.65
2022-09-15T02:27:28.613Z,62.89
2022-09-15T02:30:06.120Z,61.82
2022-09-15T02:32:37.121Z,61.08
2022-09-15T02:35:09.444Z,61.22
2022-09-15T02:37:39.221Z,61.09
2022-09-15T02:40:08.965Z,61.12
2022-09-15T02:42:37.389Z,60.98
2022-09-15T02:45:06.612Z,61.34
2022-09-15T02:47:35.071Z,61.25
2022-09-15T02:50:04.185Z,61.28
2022-09-15T02:52:32.767Z,60.89
2022-09-15T02:55:01.145Z,60.93
2022-09-15T02:57:29.913Z,60.94
2022-09-15T03:00:13.774Z,61.04
2022-09-15T03:02:45.818Z,61.14
2022-09-15T03:05:15.174Z,61.07
2022-09-15T03:07:43.824Z,61.18
2022-09-15T03:10:13.114Z,61.21
2022-09-15T03:12:45.169Z,61.41
2022-09-15T03:15:16.846Z,61.43
2022-09-15T03:17:47.197Z,61.47
2022-09-15T03:20:25.015Z,61.49
2022-09-15T03:22:53.533Z,61.57
2022-09-15T03:25:22.338Z,61.58
2022-09-15T03:27:50.698Z,61.60
2022-09-15T03:30:19.300Z,61.45
2022-09-15T03:32:48.989Z,61.18
2022-09-15T03:35:17.419Z,61.13
2022-09-15T03:37:46.027Z,61.26
2022-09-15T03:40:14.624Z,61.24
2022-09-15T03:42:43.085Z,60.99
2022-09-15T03:45:11.280Z,61.15
2022-09-15T03:47:39.691Z,61.11
2022-09-15T03:50:08.736Z,61.13
2022-09-15T03:52:37.250Z,60.96
2022-09-15T03:55:06.298Z,60.98
2022-09-15T03:57:34.534Z,60.91
2022-09-15T04:00:05.577Z,60.56
2022-09-15T04:02:34.200Z,60.32
2022-09-15T04:05:02.903Z,60.14
2022-09-15T04:07:31.323Z,60.38
2022-09-15T04:10:00.491Z,60.41
2022-09-15T04:12:32.336Z,60.37
2022-09-15T04:15:01.454Z,60.01
2022-09-15T04:17:30.248Z,59.85
2022-09-15T04:19:58.640Z,59.74
2022-09-15T04:22:27.877Z,59.62
2022-09-15T04:24:56.106Z,59.55
2022-09-15T04:27:24.699Z,59.18
2022-09-15T04:29:53.596Z,59.07
2022-09-15T04:32:25.487Z,59.13
2022-09-15T04:34:53.833Z,59.21
2022-09-15T04:37:23.386Z,59.02
2022-09-15T04:39:51.874Z,58.89
2022-09-15T04:42:21.913Z,58.92
2022-09-15T04:44:50.301Z,58.86
2022-09-15T04:47:18.666Z,59.78
2022-09-15T04:49:47.094Z,58.93
2022-09-15T04:52:15.497Z,59.18
2022-09-15T04:54:44.017Z,59.53
2022-09-15T04:57:12.460Z,58.89
2022-09-15T04:59:40.838Z,58.59
2022-09-15T05:02:09.164Z,58.55
2022-09-15T05:04:37.622Z,58.44
2022-09-15T05:07:06.215Z,58.33
2022-09-15T05:09:34.777Z,58.51
2022-09-15T05:12:03.097Z,59.22
2022-09-15T05:14:31.992Z,59.31
2022-09-15T05:17:00.390Z,58.59
2022-09-15T05:19:28.950Z,58.21
2022-09-15T05:21:57.291Z,58.03
2022-09-15T05:24:25.695Z,57.68
2022-09-15T05:26:54.011Z,57.86
2022-09-15T05:29:22.558Z,57.79
2022-09-15T05:31:52.892Z,57.72
2022-09-15T05:34:23.567Z,57.90
2022-09-15T05:36:52.794Z,57.79
2022-09-15T05:39:21.336Z,57.78
2022-09-15T05:41:50.333Z,57.68
2022-09-15T05:44:18.964Z,57.92
2022-09-15T05:46:49.179Z,57.44
2022-09-15T05:49:17.574Z,57.41
2022-09-15T05:51:46.961Z,57.46
2022-09-15T05:54:19.507Z,57.32
2022-09-15T05:56:48.012Z,57.12
2022-09-15T05:59:16.413Z,57.39
2022-09-15T06:01:45.303Z,56.43
2022-09-15T06:04:16.645Z,56.62
2022-09-15T06:06:45.040Z,57.10
2022-09-15T06:09:14.338Z,58.11
2022-09-15T06:11:42.961Z,57.39
2022-09-15T06:14:13.817Z,58.48
2022-09-15T06:16:42.517Z,58.50
2022-09-15T06:19:10.921Z,57.17
2022-09-15T06:21:39.512Z,57.48
2022-09-15T06:24:12.420Z,57.17
2022-09-15T06:26:40.822Z,57.21
2022-09-15T06:29:12.973Z,57.43
2022-09-15T06:31:41.931Z,57.30
2022-09-15T06:34:11.369Z,57.39
2022-09-15T06:36:39.781Z,57.35
2022-09-15T06:39:08.740Z,57.38
2022-09-15T06:42:06.015Z,57.65
2022-09-15T06:44:31.242Z,57.78
2022-09-15T06:46:59.973Z,57.72
2022-09-15T06:49:29.202Z,57.61
2022-09-15T06:51:57.992Z,57.87
2022-09-15T06:54:28.538Z,57.65
2022-09-15T06:56:57.045Z,58.37
2022-09-15T06:59:25.420Z,57.94
2022-09-15T07:02:05.223Z,57.94
2022-09-15T07:04:37.236Z,57.96
2022-09-15T07:07:05.732Z,57.98
2022-09-15T07:09:34.162Z,57.81
2022-09-15T07:12:03.842Z,58.11
2022-09-15T07:14:32.313Z,58.49
2022-09-15T07:17:00.673Z,57.61
2022-09-15T07:19:29.100Z,57.48
2022-09-15T07:21:57.556Z,57.56
2022-09-15T07:24:26.437Z,57.47
2022-09-15T07:26:54.787Z,57.55
2022-09-15T07:29:23.323Z,57.66
2022-09-15T07:31:52.463Z,57.97
2022-09-15T07:34:21.205Z,58.31
2022-09-15T07:36:49.614Z,58.17
2022-09-15T07:39:18.043Z,58.08
2022-09-15T07:41:46.714Z,58.29
2022-09-15T07:44:15.170Z,58.37
2022-09-15T07:46:43.538Z,58.37
2022-09-15T07:49:12.086Z,58.40
2022-09-15T07:51:40.458Z,58.42
2022-09-15T07:54:09.293Z,58.93
2022-09-15T07:56:38.025Z,59.54
2022-09-15T07:59:06.554Z,61.86
2022-09-15T08:01:35.174Z,63.47
2022-09-15T08:04:03.955Z,64.55
2022-09-15T08:06:35.341Z,63.61
2022-09-15T08:09:04.047Z,62.72
2022-09-15T08:11:32.809Z,62.44
2022-09-15T08:14:02.836Z,61.52
2022-09-15T08:16:31.621Z,61.76
2022-09-15T08:19:02.147Z,62.58
2022-09-15T08:21:30.499Z,62.80
2022-09-15T08:24:01.384Z,60.63
2022-09-15T08:26:30.129Z,59.87
2022-09-15T08:28:58.871Z,59.64
2022-09-15T08:31:27.287Z,59.66
2022-09-15T08:33:56.926Z,59.31
2022-09-15T08:36:28.391Z,59.42
2022-09-15T08:38:57.073Z,59.07
2022-09-15T08:41:38.102Z,58.90
2022-09-15T08:44:42.859Z,59.02
2022-09-15T08:47:38.482Z,59.20
2022-09-15T08:50:34.601Z,59.10
2022-09-15T08:53:13.507Z,59.27
2022-09-15T08:55:49.081Z,59.61
2022-09-15T08:58:24.557Z,59.44
2022-09-15T09:01:11.186Z,59.48
2022-09-15T09:04:10.763Z,59.53
2022-09-15T09:06:45.068Z,59.75
2022-09-15T09:09:33.281Z,59.98
2022-09-15T09:12:29.526Z,60.33
2022-09-15T09:15:26.177Z,60.88
2022-09-15T09:18:47.329Z,61.62
2022-09-15T09:21:31.302Z,62.15
2022-09-15T09:24:28.865Z,61.85
2022-09-15T09:26:57.254Z,61.45
2022-09-15T09:29:35.964Z,61.62
2022-09-15T09:32:25.185Z,61.68
2022-09-15T09:35:33.801Z,62.12
2022-09-15T09:38:02.706Z,62.54
2022-09-15T09:40:32.986Z,62.83
2022-09-15T09:43:01.488Z,62.53
2022-09-15T09:45:29.847Z,62.49
2022-09-15T09:48:18.944Z,62.04
2022-09-15T09:50:47.238Z,62.23
2022-09-15T09:53:53.768Z,62.02
2022-09-15T09:56:27.265Z,62.26
2022-09-15T09:58:55.791Z,62.34
2022-09-15T10:01:26.487Z,62.20
2022-09-15T10:04:20.290Z,62.05
2022-09-15T10:06:49.315Z,61.73
2022-09-15T10:09:19.594Z,61.75
2022-09-15T10:11:54.306Z,61.51
2022-09-15T10:14:28.356Z,61.18
2022-09-15T10:17:06.542Z,60.35
2022-09-15T10:19:56.188Z,60.06
2022-09-15T10:22:40.441Z,60.03
2022-09-15T10:25:20.632Z,60.30
2022-09-15T10:28:09.137Z,60.01
2022-09-15T10:30:39.161Z,60.14
2022-09-15T10:33:26.612Z,60.02
2022-09-15T10:35:59.958Z,59.23
2022-09-15T10:38:44.089Z,57.96
2022-09-15T10:41:23.322Z,57.18
2022-09-15T10:44:12.317Z,56.92
2022-09-15T10:47:12.197Z,57.38
2022-09-15T10:50:18.106Z,57.53
2022-09-15T10:53:25.918Z,57.57
2022-09-15T10:56:21.200Z,57.37
2022-09-15T10:59:43.617Z,57.52
2022-09-15T11:02:11.992Z,57.37
2022-09-15T11:05:11.137Z,57.53
2022-09-15T11:08:01.324Z,57.03
2022-09-15T11:10:57.161Z,56.86
2022-09-15T11:13:56.764Z,56.52
2022-09-15T11:16:52.948Z,55.40
2022-09-15T11:19:52.857Z,55.68
2022-09-15T11:22:29.338Z,55.71
2022-09-15T11:25:22.054Z,55.69
2022-09-15T11:28:20.126Z,55.47
2022-09-15T11:31:32.798Z,54.79
2022-09-15T11:34:36.000Z,54.68
2022-09-15T11:37:23.922Z,54.42
2022-09-15T11:40:02.384Z,54.72
2022-09-15T11:42:42.154Z,54.26
2022-09-15T11:45:20.785Z,53.37
2022-09-15T11:48:16.342Z,53.29
2022-09-15T11:50:49.325Z,52.68
2022-09-15T11:53:32.100Z,52.18
2022-09-15T11:56:19.585Z,51.67
2022-09-15T11:59:18.576Z,52.34
2022-09-15T12:02:29.486Z,52.41
2022-09-15T12:05:19.506Z,52.67
2022-09-15T12:08:02.771Z,52.73
2022-09-15T12:10:42.332Z,52.87
2022-09-15T12:13:18.477Z,53.23
2022-09-15T12:15:48.868Z,53.14
2022-09-15T12:18:49.128Z,53.46
2022-09-15T12:21:23.449Z,53.72
2022-09-15T12:24:13.717Z,53.38
2022-09-15T12:26:43.645Z,53.61
2022-09-15T12:29:42.146Z,53.80
2022-09-15T12:32:18.328Z,53.97
2022-09-15T12:35:02.632Z,54.25
2022-09-15T12:37:40.592Z,53.77
2022-09-15T12:40:33.282Z,53.92
2022-09-15T12:43:18.803Z,54.07
2022-09-15T12:45:58.407Z,54.27
2022-09-15T12:48:36.708Z,54.86
2022-09-15T12:51:12.059Z,54.71
2022-09-15T12:53:54.486Z,55.01
2022-09-15T12:56:31.961Z,54.88
2022-09-15T12:59:06.980Z,54.63
2022-09-15T13:01:49.663Z,54.27
2022-09-15T13:04:26.618Z,54.11
2022-09-15T13:07:16.266Z,53.92
2022-09-15T13:09:57.454Z,53.86
2022-09-15T13:12:36.726Z,53.64
2022-09-15T13:15:13.848Z,53.24
2022-09-15T13:17:47.408Z,52.74
2022-09-15T13:20:26.121Z,51.51
2022-09-15T13:22:56.692Z,50.02
2022-09-15T13:25:30.618Z,50.04
2022-09-15T13:28:02.079Z,49.99
2022-09-15T13:31:04.247Z,50.30
2022-09-15T13:40:56.867Z,51.09
2022-09-15T13:43:58.866Z,50.35
2022-09-15T13:46:51.489Z,50.56
2022-09-15T13:50:05.100Z,50.53
2022-09-15T13:53:04.917Z,50.92
2022-09-15T13:55:42.554Z,50.66
2022-09-15T14:01:08.743Z,50.88
2022-09-15T14:04:00.958Z,50.92
2022-09-15T14:06:43.026Z,51.28
2022-09-15T14:09:37.572Z,50.91
2022-09-15T14:12:12.359Z,51.69
2022-09-15T14:14:53.903Z,52.16
2022-09-15T14:17:26.201Z,52.27
2022-09-15T14:19:57.719Z,52.35
2022-09-15T14:22:35.587Z,52.04
2022-09-15T14:25:08.754Z,51.95
2022-09-15T14:27:44.523Z,52.34
2022-09-15T14:30:26.600Z,51.87
2022-09-15T14:33:00.829Z,52.26
2022-09-15T14:35:36.303Z,52.19
2022-09-15T14:38:05.177Z,51.79
2022-09-15T14:40:38.244Z,52.02
2022-09-15T14:43:40.575Z,52.07
2022-09-15T14:46:14.340Z,52.20
2022-09-15T14:48:42.787Z,52.11
2022-09-15T14:51:33.101Z,52.38
2022-09-15T14:54:05.658Z,52.69
2022-09-15T14:56:42.346Z,52.30
2022-09-15T14:59:54.673Z,52.14
2022-09-15T15:02:47.103Z,52.24
2022-09-15T15:06:02.571Z,52.45
2022-09-15T15:08:42.636Z,52.44
2022-09-15T15:11:15.890Z,52.61
2022-09-15T15:13:50.249Z,52.88
2022-09-15T15:16:29.845Z,53.05
2022-09-15T15:18:58.492Z,52.96
2022-09-15T15:21:44.676Z,53.01
2022-09-15T15:24:13.499Z,53.00
2022-09-15T15:26:45.017Z,53.09
2022-09-15T15:29:58.466Z,53.27
2022-09-15T15:32:26.936Z,53.50
2022-09-15T15:35:02.511Z,53.58
2022-09-15T15:37:34.075Z,53.69
2022-09-15T15:40:07.287Z,53.79
2022-09-15T15:42:35.926Z,53.59
2022-09-15T15:45:10.093Z,53.94
2022-09-15T15:47:39.063Z,53.97
2022-09-15T15:50:15.995Z,54.07
2022-09-15T15:52:45.129Z,54.37
2022-09-15T15:55:22.596Z,54.55
2022-09-15T15:57:54.605Z,54.71
2022-09-15T16:00:22.762Z,54.79
2022-09-15T16:02:52.332Z,55.02
2022-09-15T16:05:25.542Z,55.06
2022-09-15T16:07:56.178Z,55.15
2022-09-15T16:10:30.272Z,55.15
2022-09-15T16:12:58.705Z,55.38
2022-09-15T16:15:27.257Z,54.97
2022-09-15T16:17:55.520Z,54.85
2022-09-15T16:20:25.264Z,54.75
2022-09-15T16:22:53.752Z,54.72
2022-09-15T16:25:47.639Z,54.66
2022-09-15T16:28:17.846Z,54.78
2022-09-15T16:30:46.897Z,54.84
2022-09-15T16:33:18.073Z,55.02
2022-09-15T16:35:51.434Z,55.05
2022-09-15T16:38:21.564Z,54.65
2022-09-15T16:40:51.418Z,54.42
2022-09-15T16:43:22.022Z,54.22
2022-09-15T16:45:51.682Z,54.48
2022-09-15T16:48:20.422Z,54.44
2022-09-15T16:51:09.584Z,54.39
2022-09-15T16:53:39.614Z,54.33
2022-09-15T16:56:12.072Z,54.34
2022-09-15T16:58:42.253Z,54.43
2022-09-15T17:01:21.824Z,54.53
2022-09-15T17:03:50.292Z,54.54
2022-09-15T17:06:19.324Z,54.51
2022-09-15T17:08:47.818Z,54.40
2022-09-15T17:11:20.269Z,54.23
2022-09-15T17:13:48.858Z,54.44
2022-09-15T17:16:19.790Z,54.48
2022-09-15T17:18:49.219Z,54.26
2022-09-15T17:21:18.546Z,54.34
2022-09-15T17:23:49.588Z,54.13
2022-09-15T17:26:30.540Z,54.38
2022-09-15T17:28:59.726Z,54.37
2022-09-15T17:31:28.307Z,54.63
2022-09-15T17:33:56.761Z,54.72
2022-09-15T17:36:25.022Z,54.82
2022-09-15T17:38:53.491Z,55.19
2022-09-15T17:41:25.003Z,55.26
2022-09-15T17:43:55.111Z,55.41
2022-09-15T17:46:24.044Z,55.42
2022-09-15T17:48:52.673Z,55.37
2022-09-15T17:51:21.356Z,55.30
2022-09-15T17:53:49.741Z,55.24
2022-09-15T17:56:18.221Z,55.49
2022-09-15T17:58:46.625Z,55.55
2022-09-15T18:01:16.018Z,55.40
2022-09-15T18:03:45.269Z,55.39
2022-09-15T18:06:14.327Z,55.56
2022-09-15T18:08:42.922Z,55.64
2022-09-15T18:11:14.774Z,55.73
2022-09-15T18:13:43.376Z,55.79
2022-09-15T18:16:14.604Z,55.98
2022-09-15T18:18:43.235Z,56.10
2022-09-15T18:21:28.742Z,56.37
2022-09-15T18:23:57.535Z,56.59
2022-09-15T18:26:26.759Z,56.78
2022-09-15T18:28:56.075Z,57.00
2022-09-15T18:31:24.897Z,57.27
2022-09-15T18:33:53.699Z,57.61
2022-09-15T18:36:22.272Z,57.64
2022-09-15T18:38:50.542Z,57.94
2022-09-15T18:41:18.957Z,58.35
2022-09-15T18:43:50.768Z,58.49
2022-09-15T18:46:20.440Z,58.86
2022-09-15T18:48:48.896Z,58.70
2022-09-15T18:51:24.225Z,59.41
2022-09-15T18:53:57.849Z,59.49
2022-09-15T18:56:26.423Z,59.58
2022-09-15T18:58:55.706Z,59.76
2022-09-15T19:01:24.463Z,59.61
2022-09-15T19:03:53.036Z,59.86
2022-09-15T19:06:21.676Z,60.30
2022-09-15T19:08:50.310Z,60.49
2022-09-15T19:11:18.638Z,60.60
2022-09-15T19:13:47.222Z,60.83
2022-09-15T19:16:18.284Z,60.84
2022-09-15T19:18:52.152Z,60.79
2022-09-15T19:21:25.214Z,60.90
2022-09-15T19:23:59.075Z,61.07
2022-09-15T19:26:29.600Z,61.06
2022-09-15T19:28:58.562Z,61.19
2022-09-15T19:31:27.409Z,61.18
2022-09-15T19:33:55.833Z,61.70
2022-09-15T19:36:28.324Z,61.74
2022-09-15T19:39:00.710Z,61.69
2022-09-15T19:41:30.773Z,61.78
2022-09-15T19:44:02.565Z,61.91
2022-09-15T19:46:31.833Z,61.97
2022-09-15T19:49:02.451Z,62.08
2022-09-15T19:51:31.497Z,61.89
2022-09-15T19:54:00.907Z,61.88
2022-09-15T19:56:29.821Z,61.87
2022-09-15T19:58:59.502Z,61.92
2022-09-15T20:01:32.857Z,61.82
2022-09-15T20:04:02.118Z,62.01
2022-09-15T20:06:32.801Z,61.99
2022-09-15T20:09:01.509Z,61.94
2022-09-15T20:11:31.731Z,62.00
2022-09-15T20:14:00.990Z,61.92
2022-09-15T20:16:30.108Z,61.87
2022-09-15T20:18:59.008Z,61.70
2022-09-15T20:21:49.133Z,62.07
2022-09-15T20:24:19.521Z,62.09
2022-09-15T20:26:48.651Z,62.05
2022-09-15T20:29:17.009Z,62.03
2022-09-15T20:31:46.259Z,62.14
2022-09-15T20:34:14.998Z,62.04
2022-09-15T20:36:43.931Z,61.82
2022-09-15T20:39:15.365Z,61.62
2022-09-15T20:41:45.202Z,61.72
2022-09-15T20:44:15.345Z,61.63
2022-09-15T20:46:43.830Z,61.41
2022-09-15T20:49:12.782Z,61.48
2022-09-15T20:51:41.324Z,61.43
2022-09-15T20:54:11.125Z,61.45
2022-09-15T20:56:39.554Z,61.54
2022-09-15T20:59:10.574Z,61.40
2022-09-15T21:01:39.518Z,61.33
2022-09-15T21:04:09.241Z,61.61
2022-09-15T21:06:38.653Z,61.63
2022-09-15T21:09:07.999Z,61.64
2022-09-15T21:11:37.247Z,61.68
2022-09-15T21:14:05.843Z,61.64
2022-09-15T21:16:35.108Z,61.57
2022-09-15T21:19:04.474Z,61.61
2022-09-15T21:21:33.805Z,61.59
2022-09-15T21:24:06.508Z,61.87
2022-09-15T21:27:00.576Z,61.90
2022-09-15T21:29:29.744Z,61.86
2022-09-15T21:31:58.318Z,61.94
2022-09-15T21:34:27.173Z,62.00
2022-09-15T21:36:55.638Z,61.93
2022-09-15T21:39:24.122Z,62.00
2022-09-15T21:41:52.814Z,62.02
2022-09-15T21:44:21.096Z,62.05
2022-09-15T21:46:49.583Z,62.03
2022-09-15T21:49:18.653Z,61.75
2022-09-15T21:51:47.625Z,61.60
2022-09-15T21:54:15.956Z,61.50
2022-09-15T21:56:45.431Z,61.53
2022-09-15T21:59:13.825Z,61.67
2022-09-15T22:01:42.117Z,61.67
2022-09-15T22:04:10.766Z,61.69
2022-09-15T22:06:41.484Z,61.67
2022-09-15T22:09:15.832Z,61.83
2022-09-15T22:11:44.717Z,61.69
2022-09-15T22:14:14.644Z,61.86
2022-09-15T22:16:43.633Z,61.92
2022-09-15T22:19:13.469Z,61.72
2022-09-15T22:21:42.363Z,61.60
2022-09-15T22:24:13.724Z,61.35
2022-09-15T22:26:43.561Z,61.34
2022-09-15T22:29:12.168Z,61.22
2022-09-15T22:31:42.398Z,61.13
2022-09-15T22:34:10.973Z,61.27
2022-09-15T22:36:39.394Z,61.29
2022-09-15T22:39:07.972Z,61.17
2022-09-15T22:41:39.285Z,61.27
2022-09-15T22:44:17.099Z,61.21
2022-09-15T22:46:45.589Z,61.04
2022-09-15T22:49:14.263Z,61.06
2022-09-15T22:51:43.060Z,60.89
2022-09-15T22:54:11.618Z,60.85
2022-09-15T22:56:40.065Z,60.87
2022-09-15T22:59:08.493Z,60.75
2022-09-15T23:01:36.971Z,60.76
2022-09-15T23:04:05.286Z,60.68
2022-09-15T23:06:34.769Z,60.64
2022-09-15T23:09:07.981Z,60.69
2022-09-15T23:11:40.010Z,60.71
2022-09-15T23:14:15.407Z,60.79
2022-09-15T23:16:44.509Z,60.74
2022-09-15T23:19:13.680Z,60.77
2022-09-15T23:21:42.228Z,60.86
2022-09-15T23:24:12.673Z,60.75
2022-09-15T23:26:40.932Z,60.78
2022-09-15T23:29:10.333Z,60.80
2022-09-15T23:31:38.911Z,60.83
2022-09-15T23:34:07.303Z,60.98
2022-09-15T23:36:35.722Z,61.04
2022-09-15T23:39:04.358Z,60.96
2022-09-15T23:41:32.736Z,61.07
2022-09-15T23:44:01.321Z,61.06
2022-09-15T23:46:30.452Z,60.89
2022-09-15T23:48:58.894Z,60.96
2022-09-15T23:51:27.682Z,61.02
2022-09-15T23:53:56.256Z,60.93
2022-09-15T23:56:25.023Z,60.94
2022-09-15T23:58:53.432Z,60.88
